Madison, WI (53701)

6:35 PM CST on February 05, 2016 (GMT -0600)
Atmospheric, Oceanic and Space Sciences Building | | Change Station
CLOSE
Current Station
Personal Weather Station
Location: Madison, WI
Elevation: 896 ft
Nearby Weather Stations

Elev 896 ft 43.07 °N, 89.41 °W | Updated 6 seconds ago

Overcast
Overcast
25.8 °F
Feels Like 20 °F
N
4.8
Wind Variable Wind from SW

Today
High -- | Low -- °F
--% Chance of Precip.
Yesterday
High -- | Low -- °F
Precip. -- in
Pressure 30.35 in
Visibility 10.0 miles
Clouds Overcast 10000 ft
Windchill 20 °F
Dew Point 17 °F
Humidity 66%
Rainfall 0.00 in
Snow Depth Not available.
7:08 AM 5:14 PM
Waning Crescent, 8% visible
METAR KMSN 052353Z VRB03KT 10SM OVC100 M03/M09 A3031 RMK AO2 SLP278 4/003 T10281089 11011 21033 56005
Pressure 30.35 in
Visibility 10.0 miles
Clouds Overcast 10000 ft
Windchill 20 °F
Dew Point 17 °F
Humidity 66%
Rainfall 0.00 in
Snow Depth Not available.
7:08 AM 5:14 PM
Waning Crescent, 8% visible
METAR KMSN 052353Z VRB03KT 10SM OVC100 M03/M09 A3031 RMK AO2 SLP278 4/003 T10281089 11011 21033 56005

10-Day Weather Forecast

Almanac

Astronomy

Feb. 05, 2016 Rise Set
Actual Time
Civil Twilight
Nautical Twilight
Astronomical Twilight
Moon
Length of Visible Light
Length of Day
Tomorrow will be .
, % of the Moon is Illuminated

Today's Extremes

State Highs State Lows

Community

WunderPhotos

Upload Photos

1,890,899 photos uploaded!

WunderBlog® & News

Nearby

Air Quality

  Air Quality AQ Index Pollutant
Not available.

Snow Depth

Station Depth Elevation

Earthquake Activity

City Distance Mag. Time & Date
Minimum magnitude displayed is 2.5.

Coastal Water Temperatures

Place Temperature

Stations

Nearby Weather Stations

Station Location Temp. Windchill Dew Point Humidity Wind Precip. Elev Updated Type
                   

Watches & Warnings

There are currently no watches in effect.